»·PEaware :: SWA273 KSAN-KSFO

SWA273 :: KSAN-KSFO

FLIGHT INFORMATION

Flight Status: Arrived
Operator:
Southwest Airlines
More flights by this operator :: More flights under this callsign
Pilot: Ion I. (24133)
Aircraft: BOEING 737-800
(B738)
More flights by this aircraft type
Origin: KSAN San Diego Intl-Lindbergh
United States
Destination: KSFO San Francisco Intl
United States
More flights between these airports :: More routes between these airports
Route: PADRZ2 IKAYE RIZIN SPLNT STOKD SERFR SERFR3
File this flight plan on PilotEdge
Remarks:
Altitude:
(Current/Filed)
36,000ft
Speed:
(Current/Filed)
460kts
Departed: 20-Oct-19 01:28 PM
Arrived: 20-Oct-19 02:40 PM
Distance/Time
Traveled:
388nm/1:11
Distance/Time
To Go:
Arrived

Flight Plot

Page will automatically refresh every two minutes.

Flight plan parsing failed; only flown route is shown


Map Options




Map Legend


Flown Route
Filed Route
Departure Airport
Arrival Airport
Navaid (VOR, NDB)
Fix

Horizontal Profiles

Position Reports

Time Latitude Longitude Heading Altitude Ground
Speed
20-Oct-19 12:50 32.732490 -117.195447 312 22ft 0kts
20-Oct-19 12:51 32.732490 -117.195447 312 23ft 0kts
20-Oct-19 12:52 32.732490 -117.195447 312 23ft 0kts
20-Oct-19 12:53 32.732490 -117.195447 312 23ft 0kts
20-Oct-19 12:54 32.732490 -117.195447 312 23ft 0kts
20-Oct-19 12:55 32.732490 -117.195447 312 23ft 0kts
20-Oct-19 12:56 32.732490 -117.195447 312 23ft 0kts
20-Oct-19 12:57 32.732490 -117.195447 312 23ft 0kts
20-Oct-19 12:58 32.732490 -117.195447 312 23ft 0kts
20-Oct-19 12:59 32.732490 -117.195447 312 23ft 0kts
20-Oct-19 13:00 32.732490 -117.195447 312 23ft 0kts
20-Oct-19 13:01 32.732490 -117.195447 312 23ft 0kts
20-Oct-19 13:02 32.732490 -117.195447 312 23ft 0kts
20-Oct-19 13:03 32.732490 -117.195447 312 23ft 0kts
20-Oct-19 13:04 32.732490 -117.195447 312 23ft 0kts
20-Oct-19 13:05 32.732490 -117.195447 312 23ft 0kts
20-Oct-19 13:06 32.732490 -117.195447 312 23ft 0kts
20-Oct-19 13:07 32.732490 -117.195447 312 23ft 0kts
20-Oct-19 13:08 32.732490 -117.195447 312 23ft 0kts
20-Oct-19 13:09 32.732490 -117.195447 312 23ft 0kts
20-Oct-19 13:10 32.732490 -117.195447 312 23ft 0kts
20-Oct-19 13:11 32.732490 -117.195447 312 23ft 0kts
20-Oct-19 13:12 32.732490 -117.195447 312 23ft 0kts
20-Oct-19 13:13 32.732490 -117.195447 312 23ft 0kts
20-Oct-19 13:14 32.732490 -117.195447 312 23ft 0kts
20-Oct-19 13:15 32.732490 -117.195447 312 23ft 0kts
20-Oct-19 13:16 32.732490 -117.195447 312 23ft 0kts
20-Oct-19 13:17 32.732405 -117.195336 312 23ft 2kts
20-Oct-19 13:18 32.731947 -117.195035 28 23ft 0kts
20-Oct-19 13:19 32.731947 -117.195035 28 23ft 0kts
20-Oct-19 13:20 32.731947 -117.195035 28 23ft 0kts
20-Oct-19 13:21 32.732747 -117.194545 29 23ft 9kts
20-Oct-19 13:22 32.732665 -117.190235 108 22ft 0kts
20-Oct-19 13:23 32.732665 -117.190235 108 23ft 0kts
20-Oct-19 13:24 32.732318 -117.188854 106 23ft 18kts
20-Oct-19 13:25 32.730511 -117.181340 106 23ft 17kts
20-Oct-19 13:26 32.729572 -117.176596 70 23ft 6kts
20-Oct-19 13:27 32.731836 -117.182575 286 23ft 97kts
20-Oct-19 13:28 32.746207 -117.229344 306 1842ft 168kts
20-Oct-19 13:29 32.779914 -117.284809 307 3390ft 257kts
20-Oct-19 13:30 32.824017 -117.355982 309 6477ft 275kts
20-Oct-19 13:31 32.871478 -117.429694 309 9469ft 285kts
20-Oct-19 13:32 32.920890 -117.506618 309 12301ft 297kts
20-Oct-19 13:33 32.971659 -117.585531 309 15315ft 303kts
20-Oct-19 13:34 33.023406 -117.666453 308 18160ft 311kts
20-Oct-19 13:35 33.080179 -117.746443 318 20768ft 321kts
20-Oct-19 13:36 33.130371 -117.797280 319 22454ft 329kts
20-Oct-19 13:37 33.200082 -117.868641 317 23633ft 337kts
20-Oct-19 13:38 33.260112 -117.939921 314 25498ft 345kts
20-Oct-19 13:39 33.328771 -118.022627 314 27279ft 357kts
20-Oct-19 13:40 33.399876 -118.108174 314 28903ft 368kts
20-Oct-19 13:41 33.466544 -118.188136 315 30258ft 377kts
20-Oct-19 13:42 33.519339 -118.251434 314 31202ft 385kts
20-Oct-19 13:43 33.595550 -118.343165 314 32470ft 393kts
20-Oct-19 13:45 33.669893 -118.432949 314 33523ft 401kts
20-Oct-19 13:46 33.746692 -118.525983 314 34551ft 407kts
20-Oct-19 13:47 33.826725 -118.623204 313 35509ft 413kts
20-Oct-19 13:48 33.892882 -118.703798 313 35953ft 420kts
20-Oct-19 13:49 33.958747 -118.783937 313 35957ft 427kts
20-Oct-19 13:50 34.041785 -118.885650 314 35965ft 422kts
20-Oct-19 13:51 34.124223 -118.987180 312 35969ft 423kts
20-Oct-19 13:52 34.191135 -119.103434 302 35971ft 422kts
20-Oct-19 13:53 34.246941 -119.211816 303 35979ft 423kts
20-Oct-19 13:54 34.309138 -119.332479 303 35985ft 424kts
20-Oct-19 13:55 34.364612 -119.441168 303 35996ft 424kts
20-Oct-19 13:56 34.432336 -119.557649 313 35995ft 423kts
20-Oct-19 13:57 34.514471 -119.659519 314 35993ft 423kts
20-Oct-19 13:58 34.580161 -119.740761 314 35993ft 423kts
20-Oct-19 13:59 34.654513 -119.832870 314 35993ft 422kts
20-Oct-19 14:00 34.722993 -119.917358 314 36008ft 422kts
20-Oct-19 14:01 34.799634 -120.012473 314 36017ft 421kts
20-Oct-19 14:01 34.867787 -120.097285 315 36031ft 420kts
20-Oct-19 14:03 34.963141 -120.216252 315 36057ft 419kts
20-Oct-19 14:04 35.044290 -120.318206 315 36066ft 419kts
20-Oct-19 14:04 35.104198 -120.392483 317 36066ft 418kts
20-Oct-19 14:05 35.190146 -120.487984 318 36077ft 418kts
20-Oct-19 14:07 35.278219 -120.586340 318 36080ft 417kts
20-Oct-19 14:08 35.363513 -120.682284 318 36084ft 417kts
20-Oct-19 14:08 35.434574 -120.762716 318 36091ft 417kts
20-Oct-19 14:09 35.522485 -120.855383 323 36099ft 415kts
20-Oct-19 14:10 35.614729 -120.940311 323 35459ft 415kts
20-Oct-19 14:11 35.707259 -121.026399 323 34457ft 417kts
20-Oct-19 14:12 35.787001 -121.100714 323 33597ft 418kts
20-Oct-19 14:13 35.880285 -121.187617 323 32598ft 423kts
20-Oct-19 14:14 35.974287 -121.275989 323 31599ft 427kts
20-Oct-19 14:15 36.068810 -121.364979 325 30599ft 428kts
20-Oct-19 14:16 36.169584 -121.444365 329 28218ft 429kts
20-Oct-19 14:17 36.270628 -121.522571 328 24943ft 423kts
20-Oct-19 14:18 36.368041 -121.598850 328 22815ft 393kts
20-Oct-19 14:19 36.454427 -121.666899 328 22073ft 345kts
20-Oct-19 14:20 36.533816 -121.729390 327 20865ft 344kts
20-Oct-19 14:21 36.613822 -121.792673 327 19111ft 334kts
20-Oct-19 14:22 36.690966 -121.853979 327 17301ft 327kts
20-Oct-19 14:23 36.771572 -121.902223 343 15603ft 319kts
20-Oct-19 14:24 36.856999 -121.926415 345 14004ft 310kts
20-Oct-19 14:25 36.939970 -121.949621 346 12477ft 301kts
20-Oct-19 14:26 37.013700 -121.976449 341 12046ft 262kts
20-Oct-19 14:27 37.081220 -122.003198 342 10529ft 255kts
20-Oct-19 14:28 37.147638 -122.029416 343 9877ft 241kts
20-Oct-19 14:29 37.214604 -122.055595 343 9139ft 255kts
20-Oct-19 14:30 37.282925 -122.082459 342 7788ft 255kts
20-Oct-19 14:31 37.349119 -122.108549 342 6495ft 248kts
20-Oct-19 14:32 37.414339 -122.132358 344 5256ft 235kts
20-Oct-19 14:33 37.474274 -122.152484 343 4158ft 211kts
20-Oct-19 14:34 37.526093 -122.171649 329 3191ft 172kts
20-Oct-19 14:35 37.552206 -122.217204 300 2496ft 160kts
20-Oct-19 14:36 37.573124 -122.266084 298 1628ft 153kts
20-Oct-19 14:37 37.592673 -122.312614 295 886ft 143kts
20-Oct-19 14:38 37.610767 -122.355921 294 107ft 136kts
20-Oct-19 14:39 37.619971 -122.378515 262 21ft 12kts
20-Oct-19 14:40 37.619532 -122.379476 227 21ft 0kts
20-Oct-19 14:41 37.617036 -122.379478 191 21ft 18kts
20-Oct-19 14:42 37.612920 -122.382112 207 21ft 18kts
20-Oct-19 14:43 37.611304 -122.384850 357 21ft 8kts
20-Oct-19 14:44 37.612189 -122.384268 50 21ft 1kts
20-Oct-19 14:45 37.612231 -122.384203 50 21ft 0kts
20-Oct-19 14:46 37.612231 -122.384203 50 21ft 0kts
20-Oct-19 14:47 37.612231 -122.384203 50 21ft 0kts
20-Oct-19 14:48 37.612231 -122.384203 50 21ft 0kts
20-Oct-19 14:49 37.612231 -122.384203 50 21ft 0kts
20-Oct-19 14:50 37.612231 -122.384203 50 21ft 0kts
20-Oct-19 14:51 37.612231 -122.384203 50 21ft 0kts
20-Oct-19 14:52 37.612231 -122.384203 50 21ft 0kts
20-Oct-19 14:53 37.612231 -122.384203 50 21ft 0kts

Navigation Log

Ident Type
Flight plan parsing failed, navigation log unavailable